sensor_id;sensor_type;location;lat;lon;timestamp;P1;durP1;ratioP1;P2;durP2;ratioP2
21233;SDS011;10774;42.178;26.578;2022-07-21T00:00:23;4.40;;;0.90;;
21233;SDS011;10774;42.178;26.578;2022-07-21T00:02:50;3.38;;;1.00;;
21233;SDS011;10774;42.178;26.578;2022-07-21T00:05:16;3.33;;;1.50;;
21233;SDS011;10774;42.178;26.578;2022-07-21T00:07:42;3.78;;;1.10;;
21233;SDS011;10774;42.178;26.578;2022-07-21T00:10:08;5.82;;;1.50;;
21233;SDS011;10774;42.178;26.578;2022-07-21T00:12:34;2.08;;;1.27;;
21233;SDS011;10774;42.178;26.578;2022-07-21T00:15:00;6.40;;;1.10;;
21233;SDS011;10774;42.178;26.578;2022-07-21T00:17:26;3.38;;;0.90;;
21233;SDS011;10774;42.178;26.578;2022-07-21T00:19:52;3.05;;;1.25;;
21233;SDS011;10774;42.178;26.578;2022-07-21T00:22:17;2.97;;;1.05;;
21233;SDS011;10774;42.178;26.578;2022-07-21T00:24:43;3.05;;;1.10;;
21233;SDS011;10774;42.178;26.578;2022-07-21T00:27:08;1.65;;;1.02;;
21233;SDS011;10774;42.178;26.578;2022-07-21T00:29:34;3.90;;;1.00;;
21233;SDS011;10774;42.178;26.578;2022-07-21T00:31:59;4.75;;;1.10;;
21233;SDS011;10774;42.178;26.578;2022-07-21T00:34:25;5.68;;;1.15;;
21233;SDS011;10774;42.178;26.578;2022-07-21T00:36:51;4.88;;;1.30;;
21233;SDS011;10774;42.178;26.578;2022-07-21T00:39:17;6.70;;;1.48;;
21233;SDS011;10774;42.178;26.578;2022-07-21T00:41:42;3.33;;;1.13;;
21233;SDS011;10774;42.178;26.578;2022-07-21T00:44:18;5.78;;;1.30;;
21233;SDS011;10774;42.178;26.578;2022-07-21T00:46:47;3.08;;;1.00;;
21233;SDS011;10774;42.178;26.578;2022-07-21T00:49:13;3.05;;;1.15;;
21233;SDS011;10774;42.178;26.578;2022-07-21T00:51:39;2.80;;;1.08;;
21233;SDS011;10774;42.178;26.578;2022-07-21T00:54:04;3.85;;;1.10;;
21233;SDS011;10774;42.178;26.578;2022-07-21T00:56:29;5.60;;;1.15;;
21233;SDS011;10774;42.178;26.578;2022-07-21T00:58:55;3.38;;;1.00;;
21233;SDS011;10774;42.178;26.578;2022-07-21T01:01:21;1.58;;;1.00;;
21233;SDS011;10774;42.178;26.578;2022-07-21T01:03:46;2.20;;;0.95;;
21233;SDS011;10774;42.178;26.578;2022-07-21T01:06:12;3.38;;;1.23;;
21233;SDS011;10774;42.178;26.578;2022-07-21T01:08:38;5.53;;;1.33;;
21233;SDS011;10774;42.178;26.578;2022-07-21T01:11:03;2.75;;;1.00;;
21233;SDS011;10774;42.178;26.578;2022-07-21T01:13:29;5.05;;;1.15;;
21233;SDS011;10774;42.178;26.578;2022-07-21T01:15:55;2.50;;;1.50;;
21233;SDS011;10774;42.178;26.578;2022-07-21T01:18:21;2.45;;;1.15;;
21233;SDS011;10774;42.178;26.578;2022-07-21T01:20:50;1.85;;;1.20;;
21233;SDS011;10774;42.178;26.578;2022-07-21T01:23:18;4.40;;;1.10;;
21233;SDS011;10774;42.178;26.578;2022-07-21T01:25:48;3.08;;;1.80;;
21233;SDS011;10774;42.178;26.578;2022-07-21T01:28:15;1.85;;;1.20;;
21233;SDS011;10774;42.178;26.578;2022-07-21T01:30:41;2.72;;;1.25;;
21233;SDS011;10774;42.178;26.578;2022-07-21T01:33:06;2.95;;;1.25;;
21233;SDS011;10774;42.178;26.578;2022-07-21T01:35:32;3.08;;;1.35;;
21233;SDS011;10774;42.178;26.578;2022-07-21T01:37:57;2.97;;;1.10;;
21233;SDS011;10774;42.178;26.578;2022-07-21T01:40:23;3.50;;;1.45;;
21233;SDS011;10774;42.178;26.578;2022-07-21T01:43:07;2.90;;;1.10;;
21233;SDS011;10774;42.178;26.578;2022-07-21T01:45:33;2.75;;;1.33;;
21233;SDS011;10774;42.178;26.578;2022-07-21T01:47:58;4.95;;;1.48;;
21233;SDS011;10774;42.178;26.578;2022-07-21T01:50:24;5.00;;;1.23;;
21233;SDS011;10774;42.178;26.578;2022-07-21T01:52:56;1.90;;;1.13;;
21233;SDS011;10774;42.178;26.578;2022-07-21T01:55:23;3.75;;;1.40;;
21233;SDS011;10774;42.178;26.578;2022-07-21T01:57:50;8.25;;;1.90;;
21233;SDS011;10774;42.178;26.578;2022-07-21T02:00:15;4.97;;;1.52;;
21233;SDS011;10774;42.178;26.578;2022-07-21T02:02:42;3.03;;;1.40;;
21233;SDS011;10774;42.178;26.578;2022-07-21T02:05:08;3.03;;;0.95;;
21233;SDS011;10774;42.178;26.578;2022-07-21T02:07:34;6.40;;;1.50;;
21233;SDS011;10774;42.178;26.578;2022-07-21T02:09:59;4.93;;;1.50;;
21233;SDS011;10774;42.178;26.578;2022-07-21T02:12:25;4.07;;;1.42;;
21233;SDS011;10774;42.178;26.578;2022-07-21T02:14:50;1.45;;;1.05;;
21233;SDS011;10774;42.178;26.578;2022-07-21T02:17:15;2.88;;;1.40;;
21233;SDS011;10774;42.178;26.578;2022-07-21T02:19:41;6.28;;;1.48;;
21233;SDS011;10774;42.178;26.578;2022-07-21T02:22:06;3.03;;;1.35;;
21233;SDS011;10774;42.178;26.578;2022-07-21T02:24:32;4.93;;;1.40;;
21233;SDS011;10774;42.178;26.578;2022-07-21T02:26:59;4.35;;;1.40;;
21233;SDS011;10774;42.178;26.578;2022-07-21T02:29:25;4.25;;;1.73;;
21233;SDS011;10774;42.178;26.578;2022-07-21T02:31:50;6.18;;;1.58;;
21233;SDS011;10774;42.178;26.578;2022-07-21T02:34:16;4.18;;;1.70;;
21233;SDS011;10774;42.178;26.578;2022-07-21T02:36:42;4.47;;;1.30;;
21233;SDS011;10774;42.178;26.578;2022-07-21T02:39:07;3.85;;;1.90;;
21233;SDS011;10774;42.178;26.578;2022-07-21T02:41:33;2.33;;;1.48;;
21233;SDS011;10774;42.178;26.578;2022-07-21T02:43:58;4.95;;;1.40;;
21233;SDS011;10774;42.178;26.578;2022-07-21T02:46:24;4.07;;;1.35;;
21233;SDS011;10774;42.178;26.578;2022-07-21T02:48:49;4.47;;;1.60;;
21233;SDS011;10774;42.178;26.578;2022-07-21T02:51:14;3.40;;;1.63;;
21233;SDS011;10774;42.178;26.578;2022-07-21T02:53:40;6.70;;;1.35;;
21233;SDS011;10774;42.178;26.578;2022-07-21T02:56:05;5.25;;;1.30;;
21233;SDS011;10774;42.178;26.578;2022-07-21T02:58:31;7.55;;;1.80;;
21233;SDS011;10774;42.178;26.578;2022-07-21T03:00:59;7.28;;;1.70;;
21233;SDS011;10774;42.178;26.578;2022-07-21T03:03:26;8.20;;;1.70;;
21233;SDS011;10774;42.178;26.578;2022-07-21T03:05:54;6.05;;;1.70;;
21233;SDS011;10774;42.178;26.578;2022-07-21T03:08:20;8.30;;;2.20;;
21233;SDS011;10774;42.178;26.578;2022-07-21T03:10:47;9.10;;;1.80;;
21233;SDS011;10774;42.178;26.578;2022-07-21T03:13:13;10.55;;;1.65;;
21233;SDS011;10774;42.178;26.578;2022-07-21T03:15:39;6.10;;;1.60;;
21233;SDS011;10774;42.178;26.578;2022-07-21T03:18:04;3.53;;;1.70;;
21233;SDS011;10774;42.178;26.578;2022-07-21T03:20:31;7.35;;;1.73;;
21233;SDS011;10774;42.178;26.578;2022-07-21T03:22:59;9.52;;;1.90;;
21233;SDS011;10774;42.178;26.578;2022-07-21T03:25:25;4.30;;;1.83;;
21233;SDS011;10774;42.178;26.578;2022-07-21T03:27:51;4.22;;;1.52;;
21233;SDS011;10774;42.178;26.578;2022-07-21T03:30:17;5.20;;;1.85;;
21233;SDS011;10774;42.178;26.578;2022-07-21T03:32:43;4.93;;;1.60;;
21233;SDS011;10774;42.178;26.578;2022-07-21T03:35:10;6.30;;;1.55;;
21233;SDS011;10774;42.178;26.578;2022-07-21T03:37:43;6.95;;;1.88;;
21233;SDS011;10774;42.178;26.578;2022-07-21T03:40:14;5.95;;;2.00;;
21233;SDS011;10774;42.178;26.578;2022-07-21T03:42:41;2.95;;;1.40;;
21233;SDS011;10774;42.178;26.578;2022-07-21T03:45:07;7.50;;;1.83;;
21233;SDS011;10774;42.178;26.578;2022-07-21T03:47:34;8.73;;;1.70;;
21233;SDS011;10774;42.178;26.578;2022-07-21T03:49:59;5.90;;;1.80;;
21233;SDS011;10774;42.178;26.578;2022-07-21T03:52:25;5.57;;;1.80;;
21233;SDS011;10774;42.178;26.578;2022-07-21T03:54:50;4.88;;;1.40;;
21233;SDS011;10774;42.178;26.578;2022-07-21T03:57:33;3.25;;;1.50;;
21233;SDS011;10774;42.178;26.578;2022-07-21T04:00:00;3.80;;;2.10;;
21233;SDS011;10774;42.178;26.578;2022-07-21T04:02:25;6.07;;;1.88;;
21233;SDS011;10774;42.178;26.578;2022-07-21T04:04:51;12.70;;;2.00;;
21233;SDS011;10774;42.178;26.578;2022-07-21T04:07:16;7.57;;;1.98;;
21233;SDS011;10774;42.178;26.578;2022-07-21T04:09:42;6.68;;;2.20;;
21233;SDS011;10774;42.178;26.578;2022-07-21T04:12:07;6.40;;;2.53;;
21233;SDS011;10774;42.178;26.578;2022-07-21T04:14:33;6.88;;;1.88;;
21233;SDS011;10774;42.178;26.578;2022-07-21T04:16:58;5.10;;;2.30;;
21233;SDS011;10774;42.178;26.578;2022-07-21T04:19:23;9.43;;;3.05;;
21233;SDS011;10774;42.178;26.578;2022-07-21T04:21:49;3.70;;;1.73;;
21233;SDS011;10774;42.178;26.578;2022-07-21T04:24:14;6.93;;;2.28;;
21233;SDS011;10774;42.178;26.578;2022-07-21T04:26:40;9.90;;;2.53;;
21233;SDS011;10774;42.178;26.578;2022-07-21T04:29:06;4.40;;;2.45;;
21233;SDS011;10774;42.178;26.578;2022-07-21T04:31:32;7.43;;;2.15;;
21233;SDS011;10774;42.178;26.578;2022-07-21T04:33:57;12.80;;;2.28;;
21233;SDS011;10774;42.178;26.578;2022-07-21T04:36:23;7.00;;;2.22;;
21233;SDS011;10774;42.178;26.578;2022-07-21T04:38:48;5.75;;;2.08;;
21233;SDS011;10774;42.178;26.578;2022-07-21T04:41:14;7.90;;;2.13;;
21233;SDS011;10774;42.178;26.578;2022-07-21T04:43:39;7.68;;;1.73;;
21233;SDS011;10774;42.178;26.578;2022-07-21T04:46:04;6.97;;;2.03;;
21233;SDS011;10774;42.178;26.578;2022-07-21T04:48:30;8.00;;;1.98;;
21233;SDS011;10774;42.178;26.578;2022-07-21T04:50:55;7.35;;;1.90;;
21233;SDS011;10774;42.178;26.578;2022-07-21T04:53:21;10.93;;;3.00;;
21233;SDS011;10774;42.178;26.578;2022-07-21T04:55:46;4.25;;;1.80;;
21233;SDS011;10774;42.178;26.578;2022-07-21T04:58:11;3.53;;;2.10;;
21233;SDS011;10774;42.178;26.578;2022-07-21T05:00:37;8.30;;;2.45;;
21233;SDS011;10774;42.178;26.578;2022-07-21T05:03:02;4.53;;;1.90;;
21233;SDS011;10774;42.178;26.578;2022-07-21T05:05:28;6.68;;;1.98;;
21233;SDS011;10774;42.178;26.578;2022-07-21T05:07:53;3.35;;;1.85;;
21233;SDS011;10774;42.178;26.578;2022-07-21T05:10:19;5.05;;;1.67;;
21233;SDS011;10774;42.178;26.578;2022-07-21T05:12:46;7.25;;;1.98;;
21233;SDS011;10774;42.178;26.578;2022-07-21T05:15:12;9.65;;;2.08;;
21233;SDS011;10774;42.178;26.578;2022-07-21T05:17:38;8.77;;;2.00;;
21233;SDS011;10774;42.178;26.578;2022-07-21T05:20:04;20.00;;;3.25;;
21233;SDS011;10774;42.178;26.578;2022-07-21T05:22:30;5.97;;;2.00;;
21233;SDS011;10774;42.178;26.578;2022-07-21T05:24:56;5.55;;;2.33;;
21233;SDS011;10774;42.178;26.578;2022-07-21T05:27:21;5.32;;;1.60;;
21233;SDS011;10774;42.178;26.578;2022-07-21T05:29:47;10.73;;;2.15;;
21233;SDS011;10774;42.178;26.578;2022-07-21T05:32:12;8.05;;;2.10;;
21233;SDS011;10774;42.178;26.578;2022-07-21T05:34:37;8.65;;;2.00;;
21233;SDS011;10774;42.178;26.578;2022-07-21T05:37:03;4.60;;;1.75;;
21233;SDS011;10774;42.178;26.578;2022-07-21T05:39:28;7.10;;;2.10;;
21233;SDS011;10774;42.178;26.578;2022-07-21T05:41:54;6.00;;;1.83;;
21233;SDS011;10774;42.178;26.578;2022-07-21T05:44:19;5.20;;;2.22;;
21233;SDS011;10774;42.178;26.578;2022-07-21T05:46:45;8.57;;;2.13;;
21233;SDS011;10774;42.178;26.578;2022-07-21T05:49:10;8.25;;;2.42;;
21233;SDS011;10774;42.178;26.578;2022-07-21T05:51:36;8.43;;;2.20;;
21233;SDS011;10774;42.178;26.578;2022-07-21T05:54:01;6.28;;;2.28;;
21233;SDS011;10774;42.178;26.578;2022-07-21T05:56:27;4.82;;;2.33;;
21233;SDS011;10774;42.178;26.578;2022-07-21T05:58:52;5.15;;;2.35;;
21233;SDS011;10774;42.178;26.578;2022-07-21T06:01:17;9.15;;;2.28;;
21233;SDS011;10774;42.178;26.578;2022-07-21T06:03:46;8.15;;;2.50;;
21233;SDS011;10774;42.178;26.578;2022-07-21T06:06:15;11.13;;;2.33;;
21233;SDS011;10774;42.178;26.578;2022-07-21T06:08:42;10.35;;;2.40;;
21233;SDS011;10774;42.178;26.578;2022-07-21T06:11:10;4.75;;;2.15;;
21233;SDS011;10774;42.178;26.578;2022-07-21T06:13:39;8.18;;;2.20;;
21233;SDS011;10774;42.178;26.578;2022-07-21T06:16:05;8.98;;;2.10;;
21233;SDS011;10774;42.178;26.578;2022-07-21T06:18:31;9.43;;;2.08;;
21233;SDS011;10774;42.178;26.578;2022-07-21T06:20:57;9.55;;;2.03;;
21233;SDS011;10774;42.178;26.578;2022-07-21T06:23:22;6.90;;;2.72;;
21233;SDS011;10774;42.178;26.578;2022-07-21T06:25:48;7.03;;;2.10;;
21233;SDS011;10774;42.178;26.578;2022-07-21T06:28:14;9.23;;;2.22;;
21233;SDS011;10774;42.178;26.578;2022-07-21T06:30:40;3.70;;;1.88;;
21233;SDS011;10774;42.178;26.578;2022-07-21T06:33:05;6.45;;;2.00;;
21233;SDS011;10774;42.178;26.578;2022-07-21T06:35:31;4.80;;;1.75;;
21233;SDS011;10774;42.178;26.578;2022-07-21T06:37:56;5.50;;;2.17;;
21233;SDS011;10774;42.178;26.578;2022-07-21T06:40:22;6.50;;;1.70;;
21233;SDS011;10774;42.178;26.578;2022-07-21T06:42:47;4.07;;;1.83;;
21233;SDS011;10774;42.178;26.578;2022-07-21T06:45:13;5.38;;;1.70;;
21233;SDS011;10774;42.178;26.578;2022-07-21T06:47:39;4.80;;;1.70;;
21233;SDS011;10774;42.178;26.578;2022-07-21T06:50:05;2.90;;;1.80;;
21233;SDS011;10774;42.178;26.578;2022-07-21T06:52:32;10.10;;;2.00;;
21233;SDS011;10774;42.178;26.578;2022-07-21T06:54:58;8.70;;;2.10;;
21233;SDS011;10774;42.178;26.578;2022-07-21T06:57:24;5.43;;;1.83;;
21233;SDS011;10774;42.178;26.578;2022-07-21T06:59:50;4.47;;;1.60;;
21233;SDS011;10774;42.178;26.578;2022-07-21T07:02:15;6.30;;;1.63;;
21233;SDS011;10774;42.178;26.578;2022-07-21T07:04:41;6.75;;;2.00;;
21233;SDS011;10774;42.178;26.578;2022-07-21T07:07:06;8.10;;;1.73;;
21233;SDS011;10774;42.178;26.578;2022-07-21T07:09:32;7.13;;;1.95;;
21233;SDS011;10774;42.178;26.578;2022-07-21T07:11:57;5.05;;;1.98;;
21233;SDS011;10774;42.178;26.578;2022-07-21T07:14:32;17.55;;;3.08;;
21233;SDS011;10774;42.178;26.578;2022-07-21T07:16:59;4.68;;;1.98;;
21233;SDS011;10774;42.178;26.578;2022-07-21T07:19:25;3.63;;;1.63;;
21233;SDS011;10774;42.178;26.578;2022-07-21T07:21:51;6.55;;;1.55;;
21233;SDS011;10774;42.178;26.578;2022-07-21T07:24:17;3.22;;;1.67;;
21233;SDS011;10774;42.178;26.578;2022-07-21T07:26:42;8.70;;;2.03;;
21233;SDS011;10774;42.178;26.578;2022-07-21T07:29:08;5.03;;;1.83;;
21233;SDS011;10774;42.178;26.578;2022-07-21T07:31:34;6.25;;;1.60;;
21233;SDS011;10774;42.178;26.578;2022-07-21T07:34:00;6.40;;;1.83;;
21233;SDS011;10774;42.178;26.578;2022-07-21T07:36:26;5.00;;;1.95;;
21233;SDS011;10774;42.178;26.578;2022-07-21T07:38:52;7.68;;;1.77;;
21233;SDS011;10774;42.178;26.578;2022-07-21T07:41:19;3.47;;;1.55;;
21233;SDS011;10774;42.178;26.578;2022-07-21T07:43:46;5.60;;;2.00;;
21233;SDS011;10774;42.178;26.578;2022-07-21T07:46:11;4.53;;;1.92;;
21233;SDS011;10774;42.178;26.578;2022-07-21T07:48:38;7.07;;;1.95;;
21233;SDS011;10774;42.178;26.578;2022-07-21T07:51:05;6.22;;;2.13;;
21233;SDS011;10774;42.178;26.578;2022-07-21T07:53:31;6.50;;;1.50;;
21233;SDS011;10774;42.178;26.578;2022-07-21T07:55:57;7.75;;;1.75;;
21233;SDS011;10774;42.178;26.578;2022-07-21T07:58:23;7.65;;;1.80;;
21233;SDS011;10774;42.178;26.578;2022-07-21T08:00:48;3.63;;;1.30;;
21233;SDS011;10774;42.178;26.578;2022-07-21T08:03:14;4.80;;;1.95;;
21233;SDS011;10774;42.178;26.578;2022-07-21T08:05:39;2.95;;;1.70;;
21233;SDS011;10774;42.178;26.578;2022-07-21T08:08:05;9.13;;;2.30;;
21233;SDS011;10774;42.178;26.578;2022-07-21T08:10:31;7.78;;;1.80;;
21233;SDS011;10774;42.178;26.578;2022-07-21T08:12:56;4.35;;;1.90;;
21233;SDS011;10774;42.178;26.578;2022-07-21T08:15:22;8.52;;;1.73;;
21233;SDS011;10774;42.178;26.578;2022-07-21T08:17:47;7.60;;;2.05;;
21233;SDS011;10774;42.178;26.578;2022-07-21T08:20:12;6.85;;;2.30;;
21233;SDS011;10774;42.178;26.578;2022-07-21T08:22:38;5.97;;;1.98;;
21233;SDS011;10774;42.178;26.578;2022-07-21T08:25:03;8.10;;;1.73;;
21233;SDS011;10774;42.178;26.578;2022-07-21T08:27:29;5.93;;;2.00;;
21233;SDS011;10774;42.178;26.578;2022-07-21T08:29:55;7.53;;;1.55;;
21233;SDS011;10774;42.178;26.578;2022-07-21T08:32:20;6.57;;;1.75;;
21233;SDS011;10774;42.178;26.578;2022-07-21T08:34:46;5.75;;;2.45;;
21233;SDS011;10774;42.178;26.578;2022-07-21T08:37:11;4.55;;;1.63;;
21233;SDS011;10774;42.178;26.578;2022-07-21T08:39:37;5.35;;;2.03;;
21233;SDS011;10774;42.178;26.578;2022-07-21T08:42:04;4.35;;;1.77;;
21233;SDS011;10774;42.178;26.578;2022-07-21T08:44:31;4.00;;;1.90;;
21233;SDS011;10774;42.178;26.578;2022-07-21T08:46:57;6.50;;;1.80;;
21233;SDS011;10774;42.178;26.578;2022-07-21T08:49:23;3.70;;;1.63;;
21233;SDS011;10774;42.178;26.578;2022-07-21T08:51:49;5.35;;;1.77;;
21233;SDS011;10774;42.178;26.578;2022-07-21T08:54:16;4.78;;;1.92;;
21233;SDS011;10774;42.178;26.578;2022-07-21T08:56:42;9.45;;;1.85;;
21233;SDS011;10774;42.178;26.578;2022-07-21T08:59:07;5.30;;;1.70;;
21233;SDS011;10774;42.178;26.578;2022-07-21T09:01:33;5.40;;;1.90;;
21233;SDS011;10774;42.178;26.578;2022-07-21T09:06:57;8.50;;;2.40;;
21233;SDS011;10774;42.178;26.578;2022-07-21T09:09:25;4.65;;;2.00;;
21233;SDS011;10774;42.178;26.578;2022-07-21T09:11:52;3.70;;;1.63;;
21233;SDS011;10774;42.178;26.578;2022-07-21T09:14:20;6.15;;;1.73;;
21233;SDS011;10774;42.178;26.578;2022-07-21T09:16:48;4.63;;;1.83;;
21233;SDS011;10774;42.178;26.578;2022-07-21T09:21:43;6.53;;;1.90;;
21233;SDS011;10774;42.178;26.578;2022-07-21T09:24:12;9.98;;;2.47;;
21233;SDS011;10774;42.178;26.578;2022-07-21T09:29:34;4.00;;;1.65;;
21233;SDS011;10774;42.178;26.578;2022-07-21T09:32:11;7.47;;;1.83;;
21233;SDS011;10774;42.178;26.578;2022-07-21T09:34:38;3.97;;;1.50;;
21233;SDS011;10774;42.178;26.578;2022-07-21T09:37:11;4.28;;;1.55;;
21233;SDS011;10774;42.178;26.578;2022-07-21T09:42:52;5.20;;;2.22;;
21233;SDS011;10774;42.178;26.578;2022-07-21T09:45:07;9.07;;;2.17;;
21233;SDS011;10774;42.178;26.578;2022-07-21T09:47:34;5.27;;;1.90;;
21233;SDS011;10774;42.178;26.578;2022-07-21T09:50:03;5.07;;;1.80;;
21233;SDS011;10774;42.178;26.578;2022-07-21T09:52:31;5.85;;;1.83;;
21233;SDS011;10774;42.178;26.578;2022-07-21T09:55:02;4.47;;;1.70;;
21233;SDS011;10774;42.178;26.578;2022-07-21T09:57:32;2.90;;;1.67;;
21233;SDS011;10774;42.178;26.578;2022-07-21T09:59:59;2.80;;;1.95;;
21233;SDS011;10774;42.178;26.578;2022-07-21T10:02:26;3.15;;;1.70;;
21233;SDS011;10774;42.178;26.578;2022-07-21T10:04:57;4.97;;;1.80;;
21233;SDS011;10774;42.178;26.578;2022-07-21T10:07:26;3.60;;;2.08;;
21233;SDS011;10774;42.178;26.578;2022-07-21T10:09:53;4.40;;;1.65;;
21233;SDS011;10774;42.178;26.578;2022-07-21T10:12:20;2.50;;;1.92;;
21233;SDS011;10774;42.178;26.578;2022-07-21T10:14:47;6.15;;;2.10;;
21233;SDS011;10774;42.178;26.578;2022-07-21T10:17:14;5.28;;;1.70;;
21233;SDS011;10774;42.178;26.578;2022-07-21T10:25:57;2.95;;;1.77;;
21233;SDS011;10774;42.178;26.578;2022-07-21T10:28:23;3.47;;;1.63;;
21233;SDS011;10774;42.178;26.578;2022-07-21T10:30:50;6.30;;;1.92;;
21233;SDS011;10774;42.178;26.578;2022-07-21T10:33:20;7.72;;;2.22;;
21233;SDS011;10774;42.178;26.578;2022-07-21T10:35:48;5.53;;;2.00;;
21233;SDS011;10774;42.178;26.578;2022-07-21T10:38:25;8.68;;;1.90;;
21233;SDS011;10774;42.178;26.578;2022-07-21T10:40:56;3.33;;;1.70;;
21233;SDS011;10774;42.178;26.578;2022-07-21T10:45:51;4.40;;;1.70;;
21233;SDS011;10774;42.178;26.578;2022-07-21T10:51:10;2.15;;;1.60;;
21233;SDS011;10774;42.178;26.578;2022-07-21T10:53:38;5.10;;;1.85;;
21233;SDS011;10774;42.178;26.578;2022-07-21T10:56:04;2.50;;;2.13;;
21233;SDS011;10774;42.178;26.578;2022-07-21T10:58:36;5.63;;;2.33;;
21233;SDS011;10774;42.178;26.578;2022-07-21T11:01:04;5.45;;;2.13;;
21233;SDS011;10774;42.178;26.578;2022-07-21T11:03:33;2.97;;;1.90;;
21233;SDS011;10774;42.178;26.578;2022-07-21T11:11:37;4.40;;;1.85;;
21233;SDS011;10774;42.178;26.578;2022-07-21T11:24:37;2.75;;;2.00;;
21233;SDS011;10774;42.178;26.578;2022-07-21T11:29:32;2.97;;;2.00;;
21233;SDS011;10774;42.178;26.578;2022-07-21T11:31:59;16.10;;;2.95;;
21233;SDS011;10774;42.178;26.578;2022-07-21T11:37:17;3.97;;;2.00;;
21233;SDS011;10774;42.178;26.578;2022-07-21T11:39:51;4.05;;;1.65;;
21233;SDS011;10774;42.178;26.578;2022-07-21T11:42:16;5.85;;;1.83;;
21233;SDS011;10774;42.178;26.578;2022-07-21T11:44:42;3.47;;;2.13;;
21233;SDS011;10774;42.178;26.578;2022-07-21T11:47:13;9.55;;;2.08;;
21233;SDS011;10774;42.178;26.578;2022-07-21T11:49:40;2.50;;;1.80;;
21233;SDS011;10774;42.178;26.578;2022-07-21T11:52:10;7.13;;;2.20;;
21233;SDS011;10774;42.178;26.578;2022-07-21T11:54:43;3.00;;;1.52;;
21233;SDS011;10774;42.178;26.578;2022-07-21T11:57:12;5.10;;;1.83;;
21233;SDS011;10774;42.178;26.578;2022-07-21T11:59:38;5.53;;;2.10;;
21233;SDS011;10774;42.178;26.578;2022-07-21T12:02:12;6.30;;;1.92;;
21233;SDS011;10774;42.178;26.578;2022-07-21T12:04:45;8.73;;;1.95;;
21233;SDS011;10774;42.178;26.578;2022-07-21T12:07:14;6.40;;;2.47;;
21233;SDS011;10774;42.178;26.578;2022-07-21T12:09:42;3.20;;;1.63;;
21233;SDS011;10774;42.178;26.578;2022-07-21T12:12:10;2.72;;;1.80;;
21233;SDS011;10774;42.178;26.578;2022-07-21T12:14:40;3.95;;;1.73;;
21233;SDS011;10774;42.178;26.578;2022-07-21T12:17:06;6.57;;;1.88;;
21233;SDS011;10774;42.178;26.578;2022-07-21T12:19:32;3.50;;;1.88;;
21233;SDS011;10774;42.178;26.578;2022-07-21T12:21:57;10.02;;;3.60;;
21233;SDS011;10774;42.178;26.578;2022-07-21T12:24:23;4.20;;;1.98;;
21233;SDS011;10774;42.178;26.578;2022-07-21T12:27:15;3.17;;;1.50;;
21233;SDS011;10774;42.178;26.578;2022-07-21T12:29:41;6.22;;;2.00;;
21233;SDS011;10774;42.178;26.578;2022-07-21T12:32:07;7.35;;;1.98;;
21233;SDS011;10774;42.178;26.578;2022-07-21T12:34:32;4.20;;;1.80;;
21233;SDS011;10774;42.178;26.578;2022-07-21T12:37:13;6.63;;;1.77;;
21233;SDS011;10774;42.178;26.578;2022-07-21T12:39:39;6.15;;;1.60;;
21233;SDS011;10774;42.178;26.578;2022-07-21T12:42:33;5.10;;;2.20;;
21233;SDS011;10774;42.178;26.578;2022-07-21T12:45:09;3.42;;;1.63;;
21233;SDS011;10774;42.178;26.578;2022-07-21T12:47:38;4.80;;;1.83;;
21233;SDS011;10774;42.178;26.578;2022-07-21T12:50:05;3.25;;;1.85;;
21233;SDS011;10774;42.178;26.578;2022-07-21T12:52:33;3.55;;;1.67;;
21233;SDS011;10774;42.178;26.578;2022-07-21T12:54:59;6.18;;;1.85;;
21233;SDS011;10774;42.178;26.578;2022-07-21T12:57:29;2.58;;;1.90;;
21233;SDS011;10774;42.178;26.578;2022-07-21T12:59:57;7.07;;;1.80;;
21233;SDS011;10774;42.178;26.578;2022-07-21T13:02:24;3.40;;;2.17;;
21233;SDS011;10774;42.178;26.578;2022-07-21T13:04:50;5.97;;;1.92;;
21233;SDS011;10774;42.178;26.578;2022-07-21T13:07:16;4.25;;;1.92;;
21233;SDS011;10774;42.178;26.578;2022-07-21T13:09:42;3.58;;;2.17;;
21233;SDS011;10774;42.178;26.578;2022-07-21T13:12:09;4.30;;;1.90;;
21233;SDS011;10774;42.178;26.578;2022-07-21T13:14:35;5.25;;;1.80;;
21233;SDS011;10774;42.178;26.578;2022-07-21T13:17:01;3.15;;;1.50;;
21233;SDS011;10774;42.178;26.578;2022-07-21T13:19:26;8.52;;;2.08;;
21233;SDS011;10774;42.178;26.578;2022-07-21T13:21:52;3.47;;;1.90;;
21233;SDS011;10774;42.178;26.578;2022-07-21T13:24:18;1.88;;;1.63;;
21233;SDS011;10774;42.178;26.578;2022-07-21T13:26:43;3.47;;;1.80;;
21233;SDS011;10774;42.178;26.578;2022-07-21T13:29:10;3.42;;;1.52;;
21233;SDS011;10774;42.178;26.578;2022-07-21T13:31:35;5.60;;;2.28;;
21233;SDS011;10774;42.178;26.578;2022-07-21T13:34:02;5.55;;;2.05;;
21233;SDS011;10774;42.178;26.578;2022-07-21T13:36:28;6.88;;;2.20;;
21233;SDS011;10774;42.178;26.578;2022-07-21T13:38:53;5.78;;;2.05;;
21233;SDS011;10774;42.178;26.578;2022-07-21T13:41:19;4.63;;;2.15;;
21233;SDS011;10774;42.178;26.578;2022-07-21T13:43:44;4.80;;;2.15;;
21233;SDS011;10774;42.178;26.578;2022-07-21T13:46:10;10.20;;;4.13;;
21233;SDS011;10774;42.178;26.578;2022-07-21T13:48:35;7.72;;;3.83;;
21233;SDS011;10774;42.178;26.578;2022-07-21T13:51:02;6.45;;;2.53;;
21233;SDS011;10774;42.178;26.578;2022-07-21T13:53:28;7.95;;;2.70;;
21233;SDS011;10774;42.178;26.578;2022-07-21T13:55:53;6.00;;;2.08;;
21233;SDS011;10774;42.178;26.578;2022-07-21T13:58:19;9.55;;;1.90;;
21233;SDS011;10774;42.178;26.578;2022-07-21T14:00:44;9.15;;;1.80;;
21233;SDS011;10774;42.178;26.578;2022-07-21T14:03:10;6.25;;;1.77;;
21233;SDS011;10774;42.178;26.578;2022-07-21T14:05:35;5.10;;;2.00;;
21233;SDS011;10774;42.178;26.578;2022-07-21T14:08:01;11.98;;;2.45;;
21233;SDS011;10774;42.178;26.578;2022-07-21T14:10:26;7.55;;;2.15;;
21233;SDS011;10774;42.178;26.578;2022-07-21T14:12:52;5.22;;;2.05;;
21233;SDS011;10774;42.178;26.578;2022-07-21T14:15:17;7.63;;;1.95;;
21233;SDS011;10774;42.178;26.578;2022-07-21T14:17:43;7.05;;;2.00;;
21233;SDS011;10774;42.178;26.578;2022-07-21T14:20:08;10.35;;;1.80;;
21233;SDS011;10774;42.178;26.578;2022-07-21T14:22:34;4.90;;;2.17;;
21233;SDS011;10774;42.178;26.578;2022-07-21T14:25:00;5.38;;;2.00;;
21233;SDS011;10774;42.178;26.578;2022-07-21T14:27:44;10.20;;;2.15;;
21233;SDS011;10774;42.178;26.578;2022-07-21T14:30:10;9.65;;;1.90;;
21233;SDS011;10774;42.178;26.578;2022-07-21T14:32:36;6.18;;;2.00;;
21233;SDS011;10774;42.178;26.578;2022-07-21T14:35:01;18.95;;;2.38;;
21233;SDS011;10774;42.178;26.578;2022-07-21T14:37:27;10.43;;;2.00;;
21233;SDS011;10774;42.178;26.578;2022-07-21T14:39:52;11.77;;;2.30;;
21233;SDS011;10774;42.178;26.578;2022-07-21T14:42:18;9.70;;;2.30;;
21233;SDS011;10774;42.178;26.578;2022-07-21T14:44:43;7.25;;;2.10;;
21233;SDS011;10774;42.178;26.578;2022-07-21T14:47:10;6.15;;;2.05;;
21233;SDS011;10774;42.178;26.578;2022-07-21T14:49:36;5.43;;;2.20;;
21233;SDS011;10774;42.178;26.578;2022-07-21T14:52:03;5.35;;;2.42;;
21233;SDS011;10774;42.178;26.578;2022-07-21T14:54:29;10.55;;;2.13;;
21233;SDS011;10774;42.178;26.578;2022-07-21T14:56:55;7.32;;;2.00;;
21233;SDS011;10774;42.178;26.578;2022-07-21T14:59:20;6.28;;;2.15;;
21233;SDS011;10774;42.178;26.578;2022-07-21T15:01:46;9.13;;;2.50;;
21233;SDS011;10774;42.178;26.578;2022-07-21T15:04:12;6.82;;;2.10;;
21233;SDS011;10774;42.178;26.578;2022-07-21T15:06:37;9.73;;;2.50;;
21233;SDS011;10774;42.178;26.578;2022-07-21T15:09:02;10.30;;;2.45;;
21233;SDS011;10774;42.178;26.578;2022-07-21T15:11:28;5.20;;;2.28;;
21233;SDS011;10774;42.178;26.578;2022-07-21T15:13:53;8.80;;;2.50;;